Time;durP1;ratioP1;P1;durP2;ratioP2;P2;SDS_P1;SDS_P2;PMS_P1;PMS_P2;Temp;Humidity;BMP_temperature;BMP_pressure;BME280_temperature;BME280_humidity;BME280_pressure;Samples;Min_cycle;Max_cycle;Signal;HPM_P1;HPM_P2
2023/02/02 00:00:13;;;;;;;;;;;1.80;83.10;;;;;;5068877;27;82999;-36
2023/02/02 00:02:38;;;;;;;;;;;1.80;83.10;;;;;;5068776;27;82166;-36
2023/02/02 00:05:04;;;;;;;;;;;1.80;83.20;;;;;;5071412;27;82389;-36
2023/02/02 00:07:29;;;;;;;;;;;1.80;83.00;;;;;;5068721;27;82181;-35
2023/02/02 00:09:55;;;;;;;;;;;1.80;83.10;;;;;;5068991;27;82185;-36
2023/02/02 00:12:20;;;;;;;;;;;1.80;83.00;;;;;;5068764;27;83068;-36
2023/02/02 00:14:46;;;;;;;;;;;1.80;83.10;;;;;;5068265;27;82165;-36
2023/02/02 00:17:11;;;;;;;;;;;1.80;83.10;;;;;;5068488;27;82845;-36
2023/02/02 00:19:37;;;;;;;;;;;1.80;83.00;;;;;;5068587;27;83270;-36
2023/02/02 00:22:02;;;;;;;;;;;1.70;83.30;;;;;;5068201;27;82174;-36
2023/02/02 00:24:28;;;;;;;;;;;1.80;83.40;;;;;;5067097;27;84664;-36
2023/02/02 00:26:57;;;;;;;;;;;1.80;83.20;;;;;;5071151;27;83035;-36
2023/02/02 00:29:24;;;;;;;;;;;1.80;83.10;;;;;;5068360;27;82027;-36
2023/02/02 00:31:50;;;;;;;;;;;1.80;83.60;;;;;;5068535;27;82965;-36
2023/02/02 00:34:15;;;;;;;;;;;1.80;83.00;;;;;;5069143;27;81187;-36
2023/02/02 00:36:42;;;;;;;;;;;1.80;83.00;;;;;;5068320;27;82237;-36
2023/02/02 00:39:08;;;;;;;;;;;1.80;83.00;;;;;;5068166;27;82160;-36
2023/02/02 00:41:33;;;;;;;;;;;1.80;82.90;;;;;;5067537;27;83046;-36
2023/02/02 00:46:43;;;;;;;;;;;1.80;83.20;;;;;;5068300;27;81984;-36
2023/02/02 00:49:09;;;;;;;;;;;1.80;83.00;;;;;;5070681;27;82090;-36
2023/02/02 00:51:35;;;;;;;;;;;1.80;83.10;;;;;;5067968;27;82869;-36
2023/02/02 00:54:00;;;;;;;;;;;1.80;83.10;;;;;;5068080;27;82567;-36
2023/02/02 00:56:26;;;;;;;;;;;1.80;83.10;;;;;;5068063;27;82362;-36
2023/02/02 00:58:51;;;;;;;;;;;1.80;83.30;;;;;;5068571;27;82213;-36
2023/02/02 01:01:17;;;;;;;;;;;1.80;83.00;;;;;;5067749;27;82009;-36
2023/02/02 01:03:43;;;;;;;;;;;1.80;82.90;;;;;;5067505;27;83913;-36
2023/02/02 01:06:08;;;;;;;;;;;1.80;83.20;;;;;;5067176;27;84040;-36
2023/02/02 01:08:34;;;;;;;;;;;1.80;83.20;;;;;;5067895;27;82143;-36
2023/02/02 01:10:59;;;;;;;;;;;1.80;83.10;;;;;;5070474;27;82172;-36
2023/02/02 01:13:25;;;;;;;;;;;1.80;83.00;;;;;;5067994;27;81958;-36
2023/02/02 01:15:57;;;;;;;;;;;1.80;83.00;;;;;;5068044;27;81996;-36
2023/02/02 01:18:23;;;;;;;;;;;1.70;83.10;;;;;;5067196;27;85427;-36
2023/02/02 01:20:58;;;;;;;;;;;1.80;83.30;;;;;;5067797;27;82074;-36
2023/02/02 01:23:24;;;;;;;;;;;1.80;83.10;;;;;;5068006;27;83070;-36
2023/02/02 01:25:53;;;;;;;;;;;1.80;83.10;;;;;;5066552;27;84670;-36
2023/02/02 01:28:18;;;;;;;;;;;1.80;83.10;;;;;;5067187;27;82028;-36
2023/02/02 01:30:44;;;;;;;;;;;1.80;83.10;;;;;;5069755;27;82841;-36
2023/02/02 01:33:09;;;;;;;;;;;1.80;83.30;;;;;;5067122;27;81802;-36
2023/02/02 01:35:35;;;;;;;;;;;1.80;83.30;;;;;;5067299;27;83789;-36
2023/02/02 01:38:00;;;;;;;;;;;1.70;83.30;;;;;;5067182;27;82017;-36
2023/02/02 01:40:26;;;;;;;;;;;1.80;83.30;;;;;;5067682;27;82074;-36
2023/02/02 01:42:51;;;;;;;;;;;1.80;83.10;;;;;;5066817;27;81955;-36
2023/02/02 01:45:25;;;;;;;;;;;1.80;83.20;;;;;;5067130;27;82963;-36
2023/02/02 01:47:55;;;;;;;;;;;1.80;83.00;;;;;;5067737;27;81243;-36
2023/02/02 01:50:22;;;;;;;;;;;1.80;83.00;;;;;;5067110;27;81873;-36
2023/02/02 01:52:49;;;;;;;;;;;1.80;83.20;;;;;;5069727;27;83301;-36
2023/02/02 01:55:17;;;;;;;;;;;1.80;83.20;;;;;;5066480;27;82882;-36
2023/02/02 01:57:49;;;;;;;;;;;1.80;83.30;;;;;;5066782;27;84318;-36
2023/02/02 02:00:15;;;;;;;;;;;1.80;83.20;;;;;;5066741;27;81749;-36
2023/02/02 02:02:45;;;;;;;;;;;1.80;83.00;;;;;;5066791;27;83691;-36
2023/02/02 02:05:10;;;;;;;;;;;1.70;83.00;;;;;;5066761;27;82871;-36
2023/02/02 02:07:39;;;;;;;;;;;1.80;83.20;;;;;;5067023;27;82040;-36
2023/02/02 02:10:04;;;;;;;;;;;1.80;83.20;;;;;;5066595;27;82008;-36
2023/02/02 02:12:30;;;;;;;;;;;1.80;83.20;;;;;;5067326;27;82425;-36
2023/02/02 02:17:42;;;;;;;;;;;1.80;83.10;;;;;;5066710;27;81865;-36
2023/02/02 02:29:06;;;;;;;;;;;1.70;83.20;;;;;;5066736;27;81972;-36
2023/02/02 02:31:31;;;;;;;;;;;1.70;83.00;;;;;;5066603;27;82701;-36
2023/02/02 02:34:02;;;;;;;;;;;1.70;83.20;;;;;;5066393;27;82804;-36
2023/02/02 02:36:27;;;;;;;;;;;1.70;83.20;;;;;;5066645;27;82082;-36
2023/02/02 02:39:00;;;;;;;;;;;1.70;83.20;;;;;;5069091;27;82361;-36
2023/02/02 02:41:29;;;;;;;;;;;1.70;83.20;;;;;;5065887;27;82050;-36
2023/02/02 02:43:57;;;;;;;;;;;1.70;83.10;;;;;;5066320;27;82290;-36
2023/02/02 02:46:23;;;;;;;;;;;1.70;83.10;;;;;;5065307;27;83165;-36
2023/02/02 02:48:49;;;;;;;;;;;1.70;83.10;;;;;;5066444;27;82019;-36
2023/02/02 02:51:38;;;;;;;;;;;1.70;83.10;;;;;;5066512;27;82290;-36
2023/02/02 02:54:04;;;;;;;;;;;1.70;83.10;;;;;;5066207;27;83135;-36
2023/02/02 02:56:32;;;;;;;;;;;1.70;83.30;;;;;;5066512;27;82006;-36
2023/02/02 02:59:05;;;;;;;;;;;1.70;83.10;;;;;;5066179;27;81875;-36
2023/02/02 03:01:51;;;;;;;;;;;1.70;83.10;;;;;;5068920;27;83352;-36
2023/02/02 03:06:48;;;;;;;;;;;1.70;83.20;;;;;;5023245;28;83119;-36
2023/02/02 03:09:35;;;;;;;;;;;1.70;83.20;;;;;;5025334;28;81974;-36
2023/02/02 03:12:00;;;;;;;;;;;1.70;83.00;;;;;;5025274;28;82961;-38
2023/02/02 03:14:26;;;;;;;;;;;1.70;83.00;;;;;;5025238;28;84285;-36
2023/02/02 03:16:51;;;;;;;;;;;1.70;83.00;;;;;;5025482;28;82053;-36
2023/02/02 03:19:17;;;;;;;;;;;1.70;83.10;;;;;;5025385;28;84251;-36
2023/02/02 03:21:43;;;;;;;;;;;1.70;83.00;;;;;;5025167;28;83023;-36
2023/02/02 03:24:08;;;;;;;;;;;1.70;83.20;;;;;;5028045;28;81962;-36
2023/02/02 03:26:34;;;;;;;;;;;1.70;83.10;;;;;;5025110;28;84331;-36
2023/02/02 03:28:59;;;;;;;;;;;1.70;83.00;;;;;;5025832;28;81372;-36
2023/02/02 03:31:26;;;;;;;;;;;1.70;83.20;;;;;;5025432;28;83438;-36
2023/02/02 03:33:51;;;;;;;;;;;1.60;83.10;;;;;;5024974;28;84503;-36
2023/02/02 03:36:17;;;;;;;;;;;1.60;83.10;;;;;;5024205;28;83047;-36
2023/02/02 03:38:42;;;;;;;;;;;1.70;83.10;;;;;;5025364;28;84735;-36
2023/02/02 03:41:08;;;;;;;;;;;1.60;83.00;;;;;;5024893;28;84516;-36
2023/02/02 03:43:33;;;;;;;;;;;1.60;82.90;;;;;;5027691;28;82084;-36
2023/02/02 03:46:03;;;;;;;;;;;1.60;83.20;;;;;;5025082;28;84241;-36
2023/02/02 03:48:29;;;;;;;;;;;1.60;83.00;;;;;;5025183;28;82095;-35
2023/02/02 03:50:55;;;;;;;;;;;1.60;82.90;;;;;;5027460;28;83874;-36
2023/02/02 03:53:21;;;;;;;;;;;1.60;83.00;;;;;;5028617;28;83636;-36
2023/02/02 03:55:46;;;;;;;;;;;1.60;82.90;;;;;;5028645;28;82097;-36
2023/02/02 03:58:12;;;;;;;;;;;1.60;82.90;;;;;;5028379;28;83092;-36
2023/02/02 04:00:37;;;;;;;;;;;1.60;82.90;;;;;;5027232;28;85367;-36
2023/02/02 04:03:03;;;;;;;;;;;1.60;82.90;;;;;;5028192;28;81754;-36
2023/02/02 04:05:28;;;;;;;;;;;1.60;82.90;;;;;;5030282;28;83642;-36
2023/02/02 04:07:54;;;;;;;;;;;1.70;82.80;;;;;;5028134;28;82143;-36
2023/02/02 04:10:19;;;;;;;;;;;1.60;83.00;;;;;;5028149;28;83808;-36
2023/02/02 04:12:45;;;;;;;;;;;1.60;83.00;;;;;;5028066;28;84237;-36
2023/02/02 04:15:11;;;;;;;;;;;1.60;83.10;;;;;;5028081;28;82017;-36
2023/02/02 04:17:37;;;;;;;;;;;1.60;83.00;;;;;;5028435;28;82928;-36
2023/02/02 04:20:03;;;;;;;;;;;1.50;83.20;;;;;;5028086;28;83074;-35
2023/02/02 04:22:29;;;;;;;;;;;1.60;83.20;;;;;;5027707;28;82085;-36
2023/02/02 04:24:54;;;;;;;;;;;1.60;82.90;;;;;;5027320;28;83866;-35
2023/02/02 04:27:20;;;;;;;;;;;1.60;82.90;;;;;;5030489;28;84824;-36
2023/02/02 04:29:45;;;;;;;;;;;1.50;82.90;;;;;;5027907;28;83899;-35
2023/02/02 04:32:13;;;;;;;;;;;1.60;83.10;;;;;;5027910;28;83052;-36
2023/02/02 04:34:38;;;;;;;;;;;1.60;83.00;;;;;;5027660;28;82350;-35
2023/02/02 04:37:04;;;;;;;;;;;1.60;82.90;;;;;;5027303;28;84072;-35
2023/02/02 04:39:30;;;;;;;;;;;1.60;82.80;;;;;;5027576;28;84217;-36
2023/02/02 04:41:55;;;;;;;;;;;1.50;82.90;;;;;;5028105;28;81252;-36
2023/02/02 04:44:20;;;;;;;;;;;1.50;83.10;;;;;;5027618;28;83176;-35
2023/02/02 04:46:46;;;;;;;;;;;1.50;83.10;;;;;;5027430;28;84528;-35
2023/02/02 04:49:11;;;;;;;;;;;1.50;83.10;;;;;;5029857;28;83042;-37
2023/02/02 04:51:38;;;;;;;;;;;1.50;82.90;;;;;;5027396;28;84366;-36
2023/02/02 04:54:04;;;;;;;;;;;1.50;83.10;;;;;;5027419;28;82162;-36
2023/02/02 04:56:29;;;;;;;;;;;1.50;82.90;;;;;;5027643;28;82489;-36
2023/02/02 04:58:55;;;;;;;;;;;1.50;82.90;;;;;;5027301;28;83740;-35
2023/02/02 05:01:21;;;;;;;;;;;1.50;83.00;;;;;;5027603;28;82134;-36
2023/02/02 05:03:46;;;;;;;;;;;1.50;83.10;;;;;;5027584;28;82273;-36
2023/02/02 05:06:12;;;;;;;;;;;1.50;83.00;;;;;;5026934;28;83679;-36
2023/02/02 05:08:38;;;;;;;;;;;1.50;83.00;;;;;;5027425;28;82011;-35
2023/02/02 05:11:07;;;;;;;;;;;1.50;82.90;;;;;;5029766;28;82844;-36
2023/02/02 05:13:33;;;;;;;;;;;1.50;83.10;;;;;;5026864;28;82878;-36
2023/02/02 05:15:58;;;;;;;;;;;1.50;83.10;;;;;;5027078;28;84529;-35
2023/02/02 05:18:24;;;;;;;;;;;1.40;83.10;;;;;;5026904;28;84558;-36
2023/02/02 05:20:50;;;;;;;;;;;1.40;83.30;;;;;;5026949;28;82038;-36
2023/02/02 05:23:15;;;;;;;;;;;1.40;83.20;;;;;;5026741;28;83804;-36
2023/02/02 05:25:41;;;;;;;;;;;1.40;83.30;;;;;;5026699;28;84787;-36
2023/02/02 05:28:06;;;;;;;;;;;1.40;83.20;;;;;;5027196;28;82126;-36
2023/02/02 05:30:32;;;;;;;;;;;1.40;83.10;;;;;;5029771;28;84054;-35
2023/02/02 05:32:57;;;;;;;;;;;1.40;83.10;;;;;;5026905;28;81870;-36
2023/02/02 05:35:23;;;;;;;;;;;1.40;83.20;;;;;;5027047;28;82409;-35
2023/02/02 05:37:48;;;;;;;;;;;1.30;83.30;;;;;;5026077;28;83961;-35
2023/02/02 05:40:14;;;;;;;;;;;1.30;83.50;;;;;;5026643;28;81976;-35
2023/02/02 05:42:39;;;;;;;;;;;1.40;83.10;;;;;;5027031;28;82350;-36
2023/02/02 05:45:05;;;;;;;;;;;1.40;83.20;;;;;;5026433;28;84399;-35
2023/02/02 05:47:30;;;;;;;;;;;1.40;83.10;;;;;;5026596;28;83248;-36
2023/02/02 05:49:56;;;;;;;;;;;1.40;83.20;;;;;;5026948;28;82356;-36
2023/02/02 05:52:23;;;;;;;;;;;1.30;83.30;;;;;;5028810;28;84537;-35
2023/02/02 05:54:48;;;;;;;;;;;1.40;83.00;;;;;;5027226;28;81474;-36
2023/02/02 05:57:14;;;;;;;;;;;1.30;83.10;;;;;;5026323;28;84343;-36
2023/02/02 05:59:39;;;;;;;;;;;1.30;83.20;;;;;;5026909;28;81989;-35
2023/02/02 06:02:05;;;;;;;;;;;1.40;83.00;;;;;;5025813;28;83848;-35
2023/02/02 06:04:30;;;;;;;;;;;1.30;83.20;;;;;;5025555;28;84349;-36
2023/02/02 06:06:56;;;;;;;;;;;1.30;83.30;;;;;;5026200;28;82319;-36
2023/02/02 06:09:22;;;;;;;;;;;1.30;83.40;;;;;;5026270;28;83568;-36
2023/02/02 06:11:48;;;;;;;;;;;1.40;83.20;;;;;;5026026;28;84585;-35
2023/02/02 06:14:13;;;;;;;;;;;1.40;83.60;;;;;;5028458;28;82049;-36
2023/02/02 06:16:39;;;;;;;;;;;1.30;83.20;;;;;;5026156;28;84467;-36
2023/02/02 06:19:04;;;;;;;;;;;1.30;83.20;;;;;;5026501;28;81364;-35
2023/02/02 06:21:30;;;;;;;;;;;1.30;83.30;;;;;;5025929;28;82316;-35
2023/02/02 06:23:56;;;;;;;;;;;1.30;82.90;;;;;;5025676;28;84308;-36
2023/02/02 06:26:21;;;;;;;;;;;1.30;83.00;;;;;;5025477;28;83065;-35
2023/02/02 06:28:48;;;;;;;;;;;1.40;83.00;;;;;;5025968;28;84831;-36
2023/02/02 06:31:17;;;;;;;;;;;1.30;83.10;;;;;;5025890;28;84046;-36
2023/02/02 06:33:46;;;;;;;;;;;1.30;83.10;;;;;;5025940;28;82109;-35
2023/02/02 06:36:12;;;;;;;;;;;1.30;83.20;;;;;;5028498;28;83893;-35
2023/02/02 06:38:37;;;;;;;;;;;1.30;83.20;;;;;;5025765;28;82553;-35
2023/02/02 06:41:03;;;;;;;;;;;1.20;83.30;;;;;;5026158;28;82488;-35
2023/02/02 06:43:29;;;;;;;;;;;1.20;83.20;;;;;;5026051;28;84975;-35
2023/02/02 06:45:57;;;;;;;;;;;1.30;83.30;;;;;;5025701;28;82051;-35
2023/02/02 06:48:23;;;;;;;;;;;1.20;83.20;;;;;;5025783;28;83874;-35
2023/02/02 06:50:49;;;;;;;;;;;1.20;83.30;;;;;;5024948;28;83991;-35
2023/02/02 06:53:14;;;;;;;;;;;1.20;83.30;;;;;;5025903;28;82097;-35
2023/02/02 06:55:40;;;;;;;;;;;1.20;83.40;;;;;;5025813;28;83810;-36
2023/02/02 06:58:05;;;;;;;;;;;1.20;83.30;;;;;;5028121;28;84583;-35
2023/02/02 07:00:32;;;;;;;;;;;1.20;83.30;;;;;;5025594;28;83634;-36
2023/02/02 07:02:57;;;;;;;;;;;1.20;83.20;;;;;;5025309;28;83735;-36
2023/02/02 07:05:23;;;;;;;;;;;1.20;83.30;;;;;;5024493;28;82107;-36
2023/02/02 07:07:49;;;;;;;;;;;1.20;83.30;;;;;;5026055;28;83701;-37
2023/02/02 07:10:14;;;;;;;;;;;1.30;83.20;;;;;;5025465;28;83669;-35
2023/02/02 07:12:40;;;;;;;;;;;1.20;83.20;;;;;;5025406;28;82067;-35
2023/02/02 07:15:06;;;;;;;;;;;1.20;83.20;;;;;;5024727;28;84020;-35
2023/02/02 07:17:31;;;;;;;;;;;1.20;83.20;;;;;;5025202;28;84438;-35
2023/02/02 07:19:57;;;;;;;;;;;1.20;83.20;;;;;;5027696;28;82224;-36
2023/02/02 07:22:23;;;;;;;;;;;1.30;83.20;;;;;;5025174;28;84229;-36
2023/02/02 07:24:48;;;;;;;;;;;1.30;83.00;;;;;;5026320;28;82126;-35
2023/02/02 07:27:13;;;;;;;;;;;1.30;83.10;;;;;;5028894;28;84180;-36
2023/02/02 07:29:39;;;;;;;;;;;1.20;83.20;;;;;;5028605;28;83799;-36
2023/02/02 07:32:04;;;;;;;;;;;1.20;83.20;;;;;;5029224;28;81311;-36
2023/02/02 07:34:30;;;;;;;;;;;1.30;83.10;;;;;;5028768;28;83269;-36
2023/02/02 07:36:56;;;;;;;;;;;1.20;83.10;;;;;;5028379;28;83435;-35
2023/02/02 07:39:21;;;;;;;;;;;1.20;83.30;;;;;;5031076;28;82956;-35
2023/02/02 07:41:47;;;;;;;;;;;1.30;83.20;;;;;;5028536;28;84054;-35
2023/02/02 07:44:16;;;;;;;;;;;1.30;83.00;;;;;;5028376;28;81740;-35
2023/02/02 07:46:45;;;;;;;;;;;1.30;83.10;;;;;;5028578;28;82584;-35
2023/02/02 07:49:14;;;;;;;;;;;1.30;83.00;;;;;;5027991;28;83445;-35
2023/02/02 07:51:40;;;;;;;;;;;1.30;83.00;;;;;;5028234;28;82101;-36
2023/02/02 07:54:06;;;;;;;;;;;1.30;82.90;;;;;;5028324;28;83849;-36
2023/02/02 07:56:32;;;;;;;;;;;1.40;82.70;;;;;;5028676;28;83768;-35
2023/02/02 07:58:57;;;;;;;;;;;1.40;82.70;;;;;;5028631;28;82015;-36
2023/02/02 08:01:24;;;;;;;;;;;1.40;82.70;;;;;;5031005;28;82265;-36
2023/02/02 08:03:51;;;;;;;;;;;1.40;82.80;;;;;;5027475;28;83069;-36
2023/02/02 08:06:19;;;;;;;;;;;1.40;82.70;;;;;;5027594;28;84950;-35
2023/02/02 08:08:45;;;;;;;;;;;1.40;82.60;;;;;;5028158;28;84140;-35
2023/02/02 08:11:11;;;;;;;;;;;1.40;82.60;;;;;;5028259;28;81945;-36
2023/02/02 08:13:38;;;;;;;;;;;1.40;82.60;;;;;;5028119;28;84099;-36
2023/02/02 08:16:04;;;;;;;;;;;1.40;82.50;;;;;;5027870;28;84446;-36
2023/02/02 08:18:29;;;;;;;;;;;1.40;82.60;;;;;;5027873;28;81999;-36
2023/02/02 08:20:58;;;;;;;;;;;1.40;82.60;;;;;;5028353;28;83120;-36
2023/02/02 08:23:24;;;;;;;;;;;1.40;82.50;;;;;;5030294;28;83349;-35
2023/02/02 08:25:49;;;;;;;;;;;1.40;82.60;;;;;;5028021;28;84013;-36
2023/02/02 08:28:15;;;;;;;;;;;1.40;82.40;;;;;;5027218;28;83846;-35
2023/02/02 08:30:41;;;;;;;;;;;1.50;82.50;;;;;;5028178;28;82075;-36
2023/02/02 08:33:06;;;;;;;;;;;1.50;82.40;;;;;;5027671;28;83832;-36
2023/02/02 08:35:32;;;;;;;;;;;1.50;82.40;;;;;;5027214;28;84103;-36
2023/02/02 08:37:57;;;;;;;;;;;1.50;82.30;;;;;;5027768;28;82062;-36
2023/02/02 08:40:24;;;;;;;;;;;1.50;82.20;;;;;;5027758;28;83618;-36
2023/02/02 08:42:53;;;;;;;;;;;1.50;82.40;;;;;;5027342;28;84427;-36
2023/02/02 08:45:18;;;;;;;;;;;1.50;82.60;;;;;;5030781;28;81439;-36
2023/02/02 08:47:44;;;;;;;;;;;1.50;82.40;;;;;;5027098;28;84525;-36
2023/02/02 08:50:09;;;;;;;;;;;1.50;82.30;;;;;;5027584;28;82250;-36
2023/02/02 08:52:35;;;;;;;;;;;1.50;82.30;;;;;;5027161;28;82996;-36
2023/02/02 08:55:00;;;;;;;;;;;1.50;82.20;;;;;;5027127;28;84707;-36
2023/02/02 08:57:26;;;;;;;;;;;1.50;82.40;;;;;;5027591;28;82218;-36
2023/02/02 08:59:52;;;;;;;;;;;1.50;82.30;;;;;;5027235;28;83918;-36
2023/02/02 09:02:17;;;;;;;;;;;1.50;82.30;;;;;;5027538;28;82735;-36
2023/02/02 09:04:44;;;;;;;;;;;1.60;82.50;;;;;;5026621;28;82046;-36
2023/02/02 09:07:10;;;;;;;;;;;1.60;82.30;;;;;;5029753;28;83782;-36
2023/02/02 09:09:35;;;;;;;;;;;1.60;82.30;;;;;;5027727;28;81363;-36
2023/02/02 09:12:01;;;;;;;;;;;1.60;82.30;;;;;;5027131;28;83113;-36
2023/02/02 09:14:26;;;;;;;;;;;1.60;82.30;;;;;;5026991;28;84486;-36
2023/02/02 09:16:52;;;;;;;;;;;1.60;82.20;;;;;;5026452;28;83526;-36
2023/02/02 09:19:17;;;;;;;;;;;1.50;82.30;;;;;;5026934;28;84802;-36
2023/02/02 09:21:43;;;;;;;;;;;1.60;82.40;;;;;;5026899;28;84184;-36
2023/02/02 09:24:09;;;;;;;;;;;1.60;82.30;;;;;;5027020;28;82027;-36
2023/02/02 09:26:35;;;;;;;;;;;1.60;82.20;;;;;;5026974;28;83782;-36
2023/02/02 09:29:01;;;;;;;;;;;1.60;82.10;;;;;;5029325;28;84494;-36
2023/02/02 09:31:28;;;;;;;;;;;1.60;82.30;;;;;;5027116;28;82759;-36
2023/02/02 09:33:53;;;;;;;;;;;1.60;82.40;;;;;;5026952;28;83747;-36
2023/02/02 09:36:20;;;;;;;;;;;1.60;82.40;;;;;;5026673;28;82089;-36
2023/02/02 09:38:46;;;;;;;;;;;1.60;82.40;;;;;;5026954;28;82432;-36
2023/02/02 09:41:30;;;;;;;;;;;1.60;82.50;;;;;;5025962;28;85276;-36
2023/02/02 09:44:21;;;;;;;;;;;1.60;82.30;;;;;;5026432;28;82239;-36
2023/02/02 09:46:58;;;;;;;;;;;1.60;82.30;;;;;;5026163;28;83840;-36
2023/02/02 09:49:47;;;;;;;;;;;1.70;82.40;;;;;;5028966;28;84448;-36
2023/02/02 09:52:21;;;;;;;;;;;1.70;82.30;;;;;;5023004;28;83849;-36
2023/02/02 09:54:48;;;;;;;;;;;1.70;82.20;;;;;;5026285;28;83145;-36
2023/02/02 09:57:25;;;;;;;;;;;1.70;82.20;;;;;;5026425;28;82539;-36
2023/02/02 09:59:52;;;;;;;;;;;1.70;82.30;;;;;;5027324;28;82225;-36
2023/02/02 10:02:23;;;;;;;;;;;1.60;82.50;;;;;;5026008;28;83209;-36
2023/02/02 10:04:51;;;;;;;;;;;1.70;82.50;;;;;;5025868;28;82176;-36
2023/02/02 10:07:22;;;;;;;;;;;1.70;82.40;;;;;;5025524;28;82971;-36
2023/02/02 10:09:56;;;;;;;;;;;1.70;82.30;;;;;;5026118;28;83043;-36
2023/02/02 10:12:34;;;;;;;;;;;1.70;82.40;;;;;;5029093;28;82021;-36
2023/02/02 10:15:12;;;;;;;;;;;1.80;82.50;;;;;;5025947;28;84369;-36
2023/02/02 10:17:41;;;;;;;;;;;1.80;82.40;;;;;;5026006;28;82037;-38
2023/02/02 10:20:18;;;;;;;;;;;1.80;82.10;;;;;;5026107;28;83533;-36
2023/02/02 10:22:44;;;;;;;;;;;1.80;82.30;;;;;;5025844;28;84532;-36
2023/02/02 10:25:11;;;;;;;;;;;1.80;82.20;;;;;;5026339;28;81344;-36
2023/02/02 10:27:38;;;;;;;;;;;1.90;82.20;;;;;;5025943;28;82043;-36
2023/02/02 10:30:10;;;;;;;;;;;1.90;82.20;;;;;;5026071;28;84190;-36
2023/02/02 10:32:37;;;;;;;;;;;1.90;82.30;;;;;;5025803;28;82959;-36
2023/02/02 10:35:18;;;;;;;;;;;1.90;82.30;;;;;;5028453;28;84973;-36
2023/02/02 10:37:43;;;;;;;;;;;1.90;82.50;;;;;;5025873;28;82062;-35
2023/02/02 10:40:13;;;;;;;;;;;1.90;82.50;;;;;;5025619;28;83820;-38
2023/02/02 10:43:44;;;;;;;;;;;1.90;82.60;;;;;;5025602;28;83479;-38
2023/02/02 10:45:32;;;;;;;;;;;1.90;82.60;;;;;;5025344;28;81967;-38
2023/02/02 10:47:57;;;;;;;;;;;1.90;82.50;;;;;;5025914;28;83889;-38
2023/02/02 10:50:23;;;;;;;;;;;2.00;82.70;;;;;;5025893;28;83735;-38
2023/02/02 10:52:53;;;;;;;;;;;1.90;82.90;;;;;;5025666;28;82105;-38
2023/02/02 10:55:19;;;;;;;;;;;1.90;82.90;;;;;;5025697;28;84019;-36
2023/02/02 10:57:52;;;;;;;;;;;1.90;83.00;;;;;;5027510;28;85644;-36
2023/02/02 11:00:27;;;;;;;;;;;1.90;83.00;;;;;;5028813;28;84046;-38
2023/02/02 11:02:52;;;;;;;;;;;1.90;83.10;;;;;;5029070;28;84236;-38
2023/02/02 11:08:10;;;;;;;;;;;1.90;83.30;;;;;;5029287;28;81966;-38
2023/02/02 11:10:35;;;;;;;;;;;1.90;83.30;;;;;;5028960;28;84534;-38
2023/02/02 11:13:01;;;;;;;;;;;1.90;83.30;;;;;;5029337;28;82377;-38
2023/02/02 11:15:28;;;;;;;;;;;1.90;83.30;;;;;;5029584;28;84028;-38
2023/02/02 11:17:54;;;;;;;;;;;1.90;83.40;;;;;;5029094;28;82212;-38
2023/02/02 11:20:29;;;;;;;;;;;1.90;83.40;;;;;;5031746;28;82099;-38
2023/02/02 11:22:59;;;;;;;;;;;2.00;83.50;;;;;;5027950;28;85503;-38
2023/02/02 11:25:36;;;;;;;;;;;2.00;83.40;;;;;;5028876;28;82039;-38
2023/02/02 11:28:17;;;;;;;;;;;2.00;83.50;;;;;;5028836;28;84043;-38
2023/02/02 11:30:45;;;;;;;;;;;2.00;83.50;;;;;;5028751;28;83503;-38
2023/02/02 11:33:29;;;;;;;;;;;1.90;83.40;;;;;;5028563;28;82057;-38
2023/02/02 11:35:56;;;;;;;;;;;2.00;83.60;;;;;;5029004;28;82394;-38
2023/02/02 11:38:22;;;;;;;;;;;1.90;83.60;;;;;;5028492;28;83427;-39
2023/02/02 11:41:09;;;;;;;;;;;2.00;83.40;;;;;;5029134;28;81634;-38
2023/02/02 11:43:43;;;;;;;;;;;2.00;83.50;;;;;;5030935;28;83205;-38
2023/02/02 11:46:14;;;;;;;;;;;2.00;83.60;;;;;;5028617;28;82299;-36
2023/02/02 11:48:46;;;;;;;;;;;2.00;83.40;;;;;;5027818;28;83958;-38
2023/02/02 11:51:20;;;;;;;;;;;2.00;83.70;;;;;;5028265;28;84726;-38
2023/02/02 11:53:46;;;;;;;;;;;2.00;83.50;;;;;;5028410;28;82020;-38
2023/02/02 11:56:22;;;;;;;;;;;2.00;83.60;;;;;;5028367;28;84196;-36
2023/02/02 11:58:48;;;;;;;;;;;2.00;83.60;;;;;;5028216;28;84748;-38
2023/02/02 12:01:27;;;;;;;;;;;2.00;83.60;;;;;;5028516;28;82134;-38
2023/02/02 12:04:13;;;;;;;;;;;2.00;83.70;;;;;;5030956;28;82061;-36
2023/02/02 12:06:38;;;;;;;;;;;2.10;83.70;;;;;;5027531;28;81521;-38
2023/02/02 12:09:11;;;;;;;;;;;2.00;83.80;;;;;;5028364;28;83494;-38
2023/02/02 12:11:56;;;;;;;;;;;2.10;83.50;;;;;;5027283;28;84465;-38
2023/02/02 12:14:24;;;;;;;;;;;2.10;83.80;;;;;;5027364;28;82918;-36
2023/02/02 12:16:55;;;;;;;;;;;2.10;83.80;;;;;;5027903;28;84942;-36
2023/02/02 12:19:39;;;;;;;;;;;2.10;83.90;;;;;;5028159;28;82911;-38
2023/02/02 12:22:05;;;;;;;;;;;2.10;83.70;;;;;;5028181;28;82181;-38
2023/02/02 12:24:32;;;;;;;;;;;2.10;83.70;;;;;;5027793;28;83572;-38
2023/02/02 12:26:58;;;;;;;;;;;2.10;83.70;;;;;;5030346;28;84647;-38
2023/02/02 12:29:26;;;;;;;;;;;2.20;83.70;;;;;;5027875;28;84315;-38
2023/02/02 12:32:12;;;;;;;;;;;2.20;83.60;;;;;;5028128;28;83106;-38
2023/02/02 12:35:10;;;;;;;;;;;2.20;83.70;;;;;;5027939;28;81860;-38
2023/02/02 12:37:53;;;;;;;;;;;2.20;83.70;;;;;;5015177;28;82880;-38
2023/02/02 12:40:35;;;;;;;;;;;2.10;83.80;;;;;;5026730;28;85467;-38
2023/02/02 12:43:21;;;;;;;;;;;2.10;83.90;;;;;;5027646;28;82064;-38
2023/02/02 12:45:47;;;;;;;;;;;2.10;84.10;;;;;;5027534;28;82308;-38
2023/02/02 12:48:12;;;;;;;;;;;2.10;84.10;;;;;;5027333;28;84501;-38
2023/02/02 12:51:02;;;;;;;;;;;2.30;83.80;;;;;;5030559;28;81822;-38
2023/02/02 12:53:45;;;;;;;;;;;2.20;83.90;;;;;;5027427;28;84676;-38
2023/02/02 12:56:10;;;;;;;;;;;2.20;83.70;;;;;;5027470;28;81835;-38
2023/02/02 12:58:42;;;;;;;;;;;2.10;84.10;;;;;;5027801;28;83511;-38
2023/02/02 13:01:26;;;;;;;;;;;2.10;84.60;;;;;;5027439;28;83531;-38
2023/02/02 13:04:01;;;;;;;;;;;2.10;84.30;;;;;;5027159;28;82057;-36
2023/02/02 13:06:45;;;;;;;;;;;2.10;84.80;;;;;;5026294;28;83438;-35
2023/02/02 13:09:18;;;;;;;;;;;2.10;84.40;;;;;;5027014;28;84516;-38
2023/02/02 13:11:48;;;;;;;;;;;2.10;84.30;;;;;;5027312;28;82933;-38
2023/02/02 13:14:18;;;;;;;;;;;2.20;84.60;;;;;;5029674;28;83770;-36
2023/02/02 13:16:49;;;;;;;;;;;2.20;84.40;;;;;;5027018;28;81924;-38
2023/02/02 13:19:35;;;;;;;;;;;2.10;84.60;;;;;;5027067;28;82922;-38
2023/02/02 13:22:03;;;;;;;;;;;2.20;84.40;;;;;;5024529;28;85914;-38
2023/02/02 13:24:30;;;;;;;;;;;2.30;84.30;;;;;;5027336;28;81340;-36
2023/02/02 13:26:57;;;;;;;;;;;2.30;84.50;;;;;;5026833;28;84120;-36
2023/02/02 13:29:41;;;;;;;;;;;2.30;84.10;;;;;;5026723;28;84411;-38
2023/02/02 13:32:16;;;;;;;;;;;2.30;84.40;;;;;;5026423;28;83009;-38
2023/02/02 13:34:44;;;;;;;;;;;2.30;84.40;;;;;;5026767;28;84898;-38
2023/02/02 13:37:29;;;;;;;;;;;2.30;84.70;;;;;;5029660;28;84057;-38
2023/02/02 13:40:04;;;;;;;;;;;2.30;84.50;;;;;;5026720;28;83742;-38
2023/02/02 13:42:40;;;;;;;;;;;2.20;84.70;;;;;;5026446;28;84464;-36
2023/02/02 13:45:26;;;;;;;;;;;2.20;85.00;;;;;;5026643;28;81972;-38
2023/02/02 13:47:55;;;;;;;;;;;2.20;85.10;;;;;;5022053;28;84401;-38
2023/02/02 13:50:24;;;;;;;;;;;2.10;85.30;;;;;;5026857;28;83592;-38
2023/02/02 13:53:09;;;;;;;;;;;2.20;85.20;;;;;;5026603;28;82054;-38
2023/02/02 13:55:58;;;;;;;;;;;2.30;85.00;;;;;;5026512;28;83932;-38
2023/02/02 13:58:42;;;;;;;;;;;2.30;84.90;;;;;;5025912;28;83851;-38
2023/02/02 14:01:09;;;;;;;;;;;2.30;85.00;;;;;;5028987;28;81947;-38
2023/02/02 14:03:38;;;;;;;;;;;2.40;84.40;;;;;;5025734;28;84786;-38
2023/02/02 14:06:04;;;;;;;;;;;2.50;84.20;;;;;;5025809;28;82180;-38
2023/02/02 14:08:30;;;;;;;;;;;2.60;83.70;;;;;;5026456;28;83596;-38
2023/02/02 14:11:00;;;;;;;;;;;2.60;83.70;;;;;;5026366;28;83057;-36
2023/02/02 14:16:42;;;;;;;;;;;2.70;83.50;;;;;;5026942;28;81478;-36
2023/02/02 14:19:27;;;;;;;;;;;2.80;83.30;;;;;;5026154;28;83308;-38
2023/02/02 14:22:08;;;;;;;;;;;2.80;83.50;;;;;;5017256;28;82293;-38
2023/02/02 14:24:33;;;;;;;;;;;2.80;83.40;;;;;;5025108;28;84540;-38
2023/02/02 14:27:08;;;;;;;;;;;2.80;83.30;;;;;;5026077;28;82087;-38
2023/02/02 14:29:35;;;;;;;;;;;2.80;83.30;;;;;;5026186;28;82969;-38
2023/02/02 14:32:19;;;;;;;;;;;2.80;83.60;;;;;;5025735;28;84237;-38
2023/02/02 14:34:45;;;;;;;;;;;2.80;83.60;;;;;;5025634;28;82121;-38
2023/02/02 14:37:22;;;;;;;;;;;2.90;83.50;;;;;;5025862;28;83988;-38
2023/02/02 14:39:51;;;;;;;;;;;2.80;83.70;;;;;;5025745;28;84416;-36
2023/02/02 14:45:10;;;;;;;;;;;2.80;83.80;;;;;;5028607;28;81992;-38
2023/02/02 14:47:52;;;;;;;;;;;2.90;83.90;;;;;;5025792;28;82063;-38
2023/02/02 14:50:31;;;;;;;;;;;2.90;83.80;;;;;;5025233;28;82911;-38
2023/02/02 14:53:05;;;;;;;;;;;2.90;83.80;;;;;;5025692;28;84444;-38
2023/02/02 14:55:31;;;;;;;;;;;2.90;84.00;;;;;;5025637;28;82159;-38
2023/02/02 14:58:01;;;;;;;;;;;2.90;84.00;;;;;;5025807;28;82223;-38
2023/02/02 15:00:28;;;;;;;;;;;2.90;84.00;;;;;;5025335;28;84542;-38
2023/02/02 15:02:54;;;;;;;;;;;2.90;84.50;;;;;;5025337;28;82051;-35
2023/02/02 15:05:29;;;;;;;;;;;2.90;84.00;;;;;;5025142;28;83008;-38